Terminal Aerodrome Forecast
Issued by NWS

Home | Current Version | Previous Version | Text Only | Print | Product List | Glossary On
Versions: 1 2 3 4 5 6 7 8 9 10 11 12
000
FTUS46 KOTX 201132
TAFPUW
TAF
KPUW 201132Z 2012/2112 24008KT P6SM SKC
     FM201600 26009G17KT P6SM FEW050 FEW200
     FM201900 27013G20KT P6SM FEW060
     FM210300 25007KT P6SM FEW200
     FM210900 VRB03KT P6SM SCT200=

USA.gov is the U.S. government's official web portal to all federal, state and local government web resources and services.